Time;durP1;ratioP1;P1;durP2;ratioP2;P2;SDS_P1;SDS_P2;PMS_P1;PMS_P2;Temp;Humidity;BMP_temperature;BMP_pressure;BME280_temperature;BME280_humidity;BME280_pressure;Samples;Min_cycle;Max_cycle;Signal;HPM_P1;HPM_P2
2022/03/31 00:00:47;;;;;;;51.70;14.38;;;13.60;99.90;;;;;;4723326;30;20049;-82
2022/03/31 00:03:19;;;;;;;45.85;14.48;;;13.60;99.90;;;;;;4729880;30;20814;-80
2022/03/31 00:05:48;;;;;;;29.38;10.80;;;13.50;99.90;;;;;;4724455;30;20535;-79
2022/03/31 00:08:18;;;;;;;31.17;10.10;;;13.50;99.90;;;;;;4724365;30;20055;-80
2022/03/31 00:10:49;;;;;;;23.80;11.00;;;13.60;99.90;;;;;;4714191;30;20105;-80
2022/03/31 00:13:18;;;;;;;39.45;12.60;;;13.60;99.90;;;;;;4732095;30;20060;-81
2022/03/31 00:15:47;;;;;;;28.58;10.52;;;13.70;99.90;;;;;;4714415;30;20059;-79
2022/03/31 00:18:17;;;;;;;33.83;12.52;;;13.70;99.90;;;;;;4730397;30;20049;-79
2022/03/31 00:20:44;;;;;;;35.20;13.23;;;13.70;99.90;;;;;;4717841;30;20916;-82
2022/03/31 00:23:13;;;;;;;37.85;14.30;;;13.60;99.90;;;;;;4698889;30;20139;-77
2022/03/31 00:25:42;;;;;;;33.85;12.73;;;13.60;99.90;;;;;;4722804;30;20049;-81
2022/03/31 00:28:12;;;;;;;45.55;14.35;;;13.60;99.90;;;;;;4716509;30;20070;-80
2022/03/31 00:30:41;;;;;;;40.80;16.25;;;13.60;99.90;;;;;;4704872;30;20075;-81
2022/03/31 00:33:08;;;;;;;30.50;12.50;;;13.60;99.90;;;;;;4698484;30;20140;-79
2022/03/31 00:35:36;;;;;;;47.38;13.68;;;13.60;99.90;;;;;;4728740;30;20119;-80
2022/03/31 00:38:04;;;;;;;36.63;15.55;;;13.60;99.90;;;;;;4740599;30;20064;-80
2022/03/31 00:40:32;;;;;;;44.38;13.60;;;13.60;99.90;;;;;;4734218;30;20060;-80
2022/03/31 00:43:00;;;;;;;39.55;14.15;;;13.60;99.90;;;;;;4734038;30;20082;-79
2022/03/31 00:45:32;;;;;;;37.08;14.52;;;13.60;99.90;;;;;;4734104;30;20125;-80
2022/03/31 00:48:01;;;;;;;34.28;12.80;;;13.60;99.90;;;;;;4749106;30;20091;-78
2022/03/31 00:50:30;;;;;;;36.05;13.88;;;13.60;99.90;;;;;;4731469;30;20057;-78
2022/03/31 00:52:58;;;;;;;27.25;11.30;;;13.50;99.90;;;;;;4716955;30;20060;-77
2022/03/31 00:55:36;;;;;;;43.90;14.52;;;13.50;99.90;;;;;;4716696;30;20134;-78
2022/03/31 00:58:05;;;;;;;30.02;10.77;;;13.50;99.90;;;;;;4716508;30;20060;-81
2022/03/31 01:00:33;;;;;;;32.15;12.38;;;13.50;99.90;;;;;;4702329;30;20056;-80
2022/03/31 01:03:00;;;;;;;28.98;12.38;;;13.50;99.90;;;;;;4716753;30;20092;-78
2022/03/31 01:05:28;;;;;;;35.67;9.55;;;13.50;99.90;;;;;;4717164;30;20458;-79
2022/03/31 01:07:56;;;;;;;40.05;12.25;;;13.50;99.90;;;;;;4716768;30;20159;-78
2022/03/31 01:10:24;;;;;;;44.70;13.38;;;13.50;99.90;;;;;;4716440;30;20412;-79
2022/03/31 01:12:52;;;;;;;37.60;12.25;;;13.60;99.90;;;;;;4716445;30;20068;-78
2022/03/31 01:15:20;;;;;;;34.92;13.25;;;13.60;99.90;;;;;;4706166;30;20061;-79
2022/03/31 01:17:49;;;;;;;36.03;11.70;;;13.60;99.90;;;;;;4713654;30;20083;-78
2022/03/31 01:20:20;;;;;;;37.60;10.77;;;13.60;99.90;;;;;;4700863;30;20069;-78
2022/03/31 01:22:50;;;;;;;30.85;13.57;;;13.60;99.90;;;;;;4688081;30;20057;-79
2022/03/31 01:25:18;;;;;;;27.83;12.43;;;13.60;99.90;;;;;;4688229;30;20077;-80
2022/03/31 01:27:49;;;;;;;45.50;12.63;;;13.60;99.90;;;;;;4716729;30;20140;-81
2022/03/31 01:30:20;;;;;;;35.75;12.40;;;13.60;99.90;;;;;;4716467;30;20056;-80
2022/03/31 01:32:49;;;;;;;33.55;13.07;;;13.50;99.90;;;;;;4701909;30;20068;-79
2022/03/31 01:35:17;;;;;;;32.20;13.15;;;13.60;99.90;;;;;;4688039;30;20065;-77
2022/03/31 01:37:45;;;;;;;32.00;11.93;;;13.50;99.90;;;;;;4716405;30;20516;-79
2022/03/31 01:40:13;;;;;;;38.88;12.95;;;13.50;99.90;;;;;;4687369;30;20152;-81
2022/03/31 01:42:45;;;;;;;31.75;12.65;;;13.50;99.90;;;;;;4717022;30;20084;-80
2022/03/31 01:45:15;;;;;;;38.80;13.90;;;13.50;99.90;;;;;;4719646;30;20061;-80
2022/03/31 01:47:44;;;;;;;24.08;12.13;;;13.40;99.90;;;;;;4735022;30;20041;-78
2022/03/31 01:50:12;;;;;;;36.45;11.63;;;13.40;99.90;;;;;;4704740;30;20406;-79
2022/03/31 01:52:44;;;;;;;40.85;14.65;;;13.40;99.90;;;;;;4704841;30;20099;-80
2022/03/31 01:55:12;;;;;;;23.65;11.02;;;13.40;99.90;;;;;;4704843;30;20507;-80
2022/03/31 01:57:40;;;;;;;33.22;13.10;;;13.40;99.90;;;;;;4733886;30;20064;-79
2022/03/31 02:00:09;;;;;;;29.08;13.13;;;13.40;99.90;;;;;;4704531;30;20532;-80
2022/03/31 02:02:40;;;;;;;37.65;14.25;;;13.40;99.90;;;;;;4733779;30;20053;-79
2022/03/31 02:05:08;;;;;;;31.73;14.10;;;13.40;99.90;;;;;;4733435;30;20091;-80
2022/03/31 02:07:36;;;;;;;33.42;14.00;;;13.40;99.90;;;;;;4703973;30;20060;-79
2022/03/31 02:10:07;;;;;;;49.88;14.02;;;13.40;99.90;;;;;;4701349;30;20069;-81
2022/03/31 02:12:35;;;;;;;47.45;14.73;;;13.40;99.90;;;;;;4716034;30;20060;-80
2022/03/31 02:15:04;;;;;;;36.85;13.73;;;13.40;99.90;;;;;;4701249;30;20061;-79
2022/03/31 02:17:32;;;;;;;45.70;14.13;;;13.50;99.90;;;;;;4701510;30;20155;-79
2022/03/31 02:20:03;;;;;;;41.05;13.35;;;13.50;99.90;;;;;;4701532;30;20505;-79
2022/03/31 02:22:30;;;;;;;39.80;14.10;;;13.50;99.90;;;;;;4701549;30;20060;-80
2022/03/31 02:24:58;;;;;;;33.15;12.45;;;13.50;99.90;;;;;;4686985;30;20053;-80
2022/03/31 02:27:26;;;;;;;45.20;12.13;;;13.50;99.90;;;;;;4715432;30;20083;-78
2022/03/31 02:29:53;;;;;;;44.95;15.35;;;13.50;99.90;;;;;;4686799;30;20144;-79
2022/03/31 02:32:21;;;;;;;36.08;14.27;;;13.50;99.90;;;;;;4700308;30;20146;-80
2022/03/31 02:34:49;;;;;;;47.25;16.25;;;13.50;99.90;;;;;;4715471;30;20068;-80
2022/03/31 02:37:16;;;;;;;37.60;15.77;;;13.50;99.90;;;;;;4701425;30;20064;-79
2022/03/31 02:39:44;;;;;;;41.03;12.95;;;13.50;99.90;;;;;;4701309;30;20057;-78
2022/03/31 02:42:12;;;;;;;36.03;13.73;;;13.50;99.90;;;;;;4716378;30;20149;-79
2022/03/31 02:44:40;;;;;;;34.80;14.98;;;13.60;99.90;;;;;;4700827;30;20080;-80
2022/03/31 02:47:09;;;;;;;42.58;13.93;;;13.60;99.90;;;;;;4701029;30;20156;-79
2022/03/31 02:49:36;;;;;;;39.58;14.30;;;13.60;99.90;;;;;;4715301;30;20420;-78
2022/03/31 02:52:05;;;;;;;48.33;13.80;;;13.60;99.90;;;;;;4700527;30;20057;-80
2022/03/31 02:57:18;;;;;;;56.13;13.90;;;13.60;99.90;;;;;;4700535;30;20057;-78
2022/03/31 02:59:46;;;;;;;49.45;15.93;;;13.60;99.90;;;;;;4714920;30;20060;-79
2022/03/31 03:02:13;;;;;;;45.85;12.82;;;13.60;99.90;;;;;;4706900;30;20188;-80
2022/03/31 03:04:42;;;;;;;47.10;13.43;;;13.60;99.90;;;;;;4729689;30;20394;-79
2022/03/31 03:07:09;;;;;;;47.05;15.63;;;13.60;99.90;;;;;;4700847;30;20057;-80
2022/03/31 03:09:37;;;;;;;38.58;12.80;;;13.70;99.90;;;;;;4717443;30;20139;-80
2022/03/31 03:12:06;;;;;;;47.08;14.02;;;13.60;99.90;;;;;;4685967;30;20067;-80
2022/03/31 03:14:33;;;;;;;45.97;12.48;;;13.70;99.90;;;;;;4714733;30;20069;-79
2022/03/31 03:17:01;;;;;;;32.92;13.43;;;13.70;99.90;;;;;;4686217;30;20060;-79
2022/03/31 03:19:29;;;;;;;38.60;14.13;;;13.70;99.90;;;;;;4715044;30;20057;-79
2022/03/31 03:21:56;;;;;;;32.47;13.73;;;13.60;99.90;;;;;;4714626;30;20151;-79
2022/03/31 03:24:24;;;;;;;35.75;12.05;;;13.70;99.90;;;;;;4700276;30;20116;-80
2022/03/31 03:26:51;;;;;;;32.65;12.25;;;13.70;99.90;;;;;;4714705;30;20053;-79
2022/03/31 03:29:19;;;;;;;54.08;14.27;;;13.60;99.90;;;;;;4700402;30;20127;-80
2022/03/31 03:31:47;;;;;;;47.35;13.80;;;13.60;99.90;;;;;;4715835;30;20052;-80
2022/03/31 03:34:15;;;;;;;35.10;14.00;;;13.60;99.90;;;;;;4685953;30;20057;-79
2022/03/31 03:36:42;;;;;;;38.03;12.95;;;13.60;99.90;;;;;;4686162;30;20057;-80
2022/03/31 03:39:13;;;;;;;34.35;12.70;;;13.60;99.90;;;;;;4700159;30;20073;-80
2022/03/31 03:41:41;;;;;;;43.58;13.02;;;13.60;99.90;;;;;;4700294;30;20084;-80
2022/03/31 03:44:08;;;;;;;32.20;12.45;;;13.60;99.90;;;;;;4713441;30;20131;-80
2022/03/31 03:46:37;;;;;;;34.17;11.77;;;13.50;99.90;;;;;;4699862;30;20063;-79
2022/03/31 03:49:04;;;;;;;28.25;11.80;;;13.60;99.90;;;;;;4699761;30;20056;-80
2022/03/31 03:51:32;;;;;;;47.92;13.85;;;13.50;99.90;;;;;;4714259;30;20130;-80
2022/03/31 03:53:59;;;;;;;32.42;11.68;;;13.50;99.90;;;;;;4714215;30;20053;-80
2022/03/31 03:56:28;;;;;;;35.17;12.63;;;13.50;99.90;;;;;;4701095;30;20098;-79
2022/03/31 03:58:55;;;;;;;37.80;15.95;;;13.60;99.90;;;;;;4700117;30;20527;-79
2022/03/31 04:01:23;;;;;;;39.17;13.20;;;13.50;99.90;;;;;;4714766;30;20065;-79
2022/03/31 04:03:50;;;;;;;35.38;13.40;;;13.60;99.90;;;;;;4714269;30;20061;-79
2022/03/31 04:06:18;;;;;;;39.38;11.57;;;13.60;99.90;;;;;;4714183;30;20412;-79
2022/03/31 04:08:45;;;;;;;39.30;12.95;;;13.60;99.90;;;;;;4714226;30;20053;-80
2022/03/31 04:11:13;;;;;;;30.33;12.70;;;13.60;99.90;;;;;;4685856;30;20461;-81
2022/03/31 04:13:40;;;;;;;53.92;16.35;;;13.60;99.90;;;;;;4715045;30;20057;-80
2022/03/31 04:16:08;;;;;;;43.45;16.48;;;13.60;99.90;;;;;;4685438;30;20055;-79
2022/03/31 04:18:36;;;;;;;44.97;15.80;;;13.60;99.90;;;;;;4685262;30;20053;-80
2022/03/31 04:21:04;;;;;;;37.42;13.27;;;13.60;99.90;;;;;;4699684;30;20476;-79
2022/03/31 04:23:31;;;;;;;38.00;14.20;;;13.60;99.90;;;;;;4713767;30;20472;-79
2022/03/31 04:25:59;;;;;;;37.15;12.07;;;13.70;99.90;;;;;;4699732;30;20053;-79
2022/03/31 04:28:27;;;;;;;36.47;12.75;;;13.70;99.90;;;;;;4713823;30;20053;-79
2022/03/31 04:30:55;;;;;;;37.17;13.38;;;13.70;99.90;;;;;;4713969;30;20390;-79
2022/03/31 04:33:22;;;;;;;46.88;11.82;;;13.70;99.90;;;;;;4685344;30;20064;-80
2022/03/31 04:35:50;;;;;;;44.30;13.77;;;13.70;99.90;;;;;;4714750;30;20056;-80
2022/03/31 04:38:17;;;;;;;35.85;13.88;;;13.70;99.90;;;;;;4699314;30;20060;-80
2022/03/31 04:40:45;;;;;;;39.65;11.23;;;13.70;99.90;;;;;;4713751;30;20048;-78
2022/03/31 04:43:13;;;;;;;43.13;18.17;;;13.80;99.90;;;;;;4699360;30;20130;-79
2022/03/31 04:45:41;;;;;;;43.17;14.48;;;13.70;99.90;;;;;;4700848;30;20111;-80
2022/03/31 04:48:09;;;;;;;54.40;15.63;;;13.70;99.90;;;;;;4716678;30;20151;-79
2022/03/31 04:50:37;;;;;;;43.67;13.07;;;13.80;99.90;;;;;;4731367;30;20114;-80
2022/03/31 04:53:06;;;;;;;35.78;13.50;;;13.80;99.90;;;;;;4731062;30;20110;-77
2022/03/31 04:55:34;;;;;;;38.75;12.65;;;13.80;99.90;;;;;;4719240;30;20095;-79
2022/03/31 04:58:01;;;;;;;37.03;13.50;;;13.90;99.90;;;;;;4734375;30;20048;-81
2022/03/31 05:00:29;;;;;;;54.22;14.07;;;13.90;99.90;;;;;;4720184;30;20071;-80
2022/03/31 05:02:57;;;;;;;34.40;13.35;;;13.90;99.90;;;;;;4734770;30;20529;-79
2022/03/31 05:05:25;;;;;;;40.92;14.38;;;14.00;99.90;;;;;;4735473;30;20062;-79
2022/03/31 05:07:52;;;;;;;53.30;15.55;;;13.90;99.90;;;;;;4735916;30;20060;-80
2022/03/31 05:10:21;;;;;;;37.97;12.13;;;13.90;99.90;;;;;;4719828;30;20420;-79
2022/03/31 05:12:48;;;;;;;37.38;14.02;;;13.90;99.90;;;;;;4720333;30;20060;-79
2022/03/31 05:15:16;;;;;;;33.42;11.00;;;13.90;99.90;;;;;;4732326;30;20092;-80
2022/03/31 05:17:44;;;;;;;35.53;14.07;;;13.90;99.90;;;;;;4732935;30;20048;-81
2022/03/31 05:20:12;;;;;;;56.28;16.20;;;13.90;99.90;;;;;;4718623;30;20524;-81
2022/03/31 05:22:40;;;;;;;36.63;12.68;;;13.90;99.90;;;;;;4718139;30;20048;-80
2022/03/31 05:25:10;;;;;;;37.38;12.05;;;14.00;99.90;;;;;;4733845;30;20579;-81
2022/03/31 05:27:45;;;;;;;40.08;13.60;;;14.00;99.90;;;;;;4707572;30;20130;-81
2022/03/31 05:30:15;;;;;;;43.37;12.40;;;14.00;99.90;;;;;;4730245;30;20063;-80
2022/03/31 05:32:43;;;;;;;43.42;14.63;;;14.00;99.90;;;;;;4734086;30;20044;-81
2022/03/31 05:35:11;;;;;;;44.58;12.85;;;14.00;99.90;;;;;;4725613;30;20044;-81
2022/03/31 05:37:42;;;;;;;55.55;14.25;;;14.00;99.90;;;;;;4748171;30;20135;-80
2022/03/31 05:40:11;;;;;;;47.20;12.75;;;14.10;99.90;;;;;;4718188;30;20049;-80
2022/03/31 05:42:39;;;;;;;42.08;12.82;;;14.00;99.90;;;;;;4715695;30;20057;-81
2022/03/31 05:45:12;;;;;;;33.38;11.80;;;14.00;99.90;;;;;;4727399;30;20079;-81
2022/03/31 05:47:42;;;;;;;31.67;12.63;;;14.00;99.90;;;;;;4732164;30;20447;-82
2022/03/31 05:50:11;;;;;;;45.53;15.18;;;14.10;99.90;;;;;;4726414;30;20478;-80
2022/03/31 05:52:42;;;;;;;33.97;13.43;;;14.10;99.90;;;;;;4717844;30;20143;-82
2022/03/31 05:55:14;;;;;;;36.88;12.35;;;14.10;99.90;;;;;;4700531;30;20049;-81
2022/03/31 05:57:42;;;;;;;33.00;14.70;;;14.10;99.90;;;;;;4706882;30;20053;-80
2022/03/31 06:00:12;;;;;;;41.22;18.02;;;14.10;99.90;;;;;;4739283;30;20439;-82
2022/03/31 06:02:40;;;;;;;43.10;14.52;;;14.00;99.90;;;;;;4735075;30;20526;-79
2022/03/31 06:05:17;;;;;;;33.67;12.32;;;14.10;99.90;;;;;;4727007;30;20072;-80
2022/03/31 06:07:46;;;;;;;58.30;14.98;;;14.20;99.90;;;;;;4733126;30;20056;-80
2022/03/31 06:10:13;;;;;;;43.13;12.88;;;14.20;99.90;;;;;;4733260;30;20531;-80
2022/03/31 06:12:41;;;;;;;39.78;11.82;;;14.20;99.90;;;;;;4719492;30;20057;-79
2022/03/31 06:15:09;;;;;;;47.78;14.20;;;14.20;99.90;;;;;;4733094;30;20056;-80
2022/03/31 06:17:40;;;;;;;53.05;14.85;;;14.20;99.90;;;;;;4718741;30;20063;-80
2022/03/31 06:20:10;;;;;;;46.50;15.52;;;14.20;99.90;;;;;;4704558;30;20110;-80
2022/03/31 06:22:38;;;;;;;48.40;13.63;;;14.20;99.90;;;;;;4733251;30;20070;-79
2022/03/31 06:25:10;;;;;;;34.88;12.85;;;14.20;99.90;;;;;;4718859;30;20061;-80
2022/03/31 06:27:38;;;;;;;38.63;11.50;;;14.20;99.90;;;;;;4718938;30;20536;-79
2022/03/31 06:30:07;;;;;;;42.72;13.10;;;14.20;99.90;;;;;;4733092;30;20057;-81
2022/03/31 06:32:34;;;;;;;35.33;12.65;;;14.10;99.90;;;;;;4733316;30;20041;-80
2022/03/31 06:35:02;;;;;;;46.40;14.88;;;14.10;99.90;;;;;;4732958;30;20063;-81
2022/03/31 06:37:30;;;;;;;32.63;13.95;;;13.90;99.90;;;;;;4733193;30;20078;-81
2022/03/31 06:39:57;;;;;;;28.40;10.48;;;13.80;99.90;;;;;;4717683;30;20060;-80
2022/03/31 06:42:25;;;;;;;41.38;11.95;;;13.80;99.90;;;;;;4718774;30;20068;-79
2022/03/31 06:44:56;;;;;;;26.70;11.65;;;13.80;99.90;;;;;;4733201;30;20060;-81
2022/03/31 06:47:39;;;;;;;39.90;13.05;;;13.70;99.90;;;;;;4720151;30;20492;-80
2022/03/31 06:50:08;;;;;;;45.40;15.25;;;13.70;99.90;;;;;;4732978;30;20052;-81
2022/03/31 06:52:36;;;;;;;34.38;13.98;;;13.70;99.90;;;;;;4733193;30;20072;-80
2022/03/31 06:55:05;;;;;;;42.33;14.07;;;13.70;99.90;;;;;;4732782;30;20048;-79
2022/03/31 06:57:33;;;;;;;36.40;14.35;;;13.70;99.90;;;;;;4718540;30;20052;-81
2022/03/31 07:00:01;;;;;;;33.40;13.38;;;13.70;99.90;;;;;;4732735;30;20076;-79
2022/03/31 07:02:29;;;;;;;52.45;14.35;;;13.60;99.90;;;;;;4718530;30;20574;-79
2022/03/31 07:04:57;;;;;;;46.83;16.67;;;13.60;99.90;;;;;;4718356;30;20044;-79
2022/03/31 07:07:24;;;;;;;45.35;15.30;;;13.60;99.90;;;;;;4718509;30;20052;-80
2022/03/31 07:09:52;;;;;;;43.05;14.93;;;13.60;99.90;;;;;;4718138;30;20056;-80
2022/03/31 07:12:20;;;;;;;54.80;15.32;;;13.70;99.90;;;;;;4718227;30;20052;-80
2022/03/31 07:14:47;;;;;;;29.05;14.93;;;13.70;99.90;;;;;;4732201;30;20060;-80
2022/03/31 07:17:15;;;;;;;34.40;14.23;;;13.70;99.90;;;;;;4703441;30;20049;-79
2022/03/31 07:19:43;;;;;;;45.92;14.65;;;13.70;99.90;;;;;;4730248;30;20404;-81
2022/03/31 07:22:11;;;;;;;45.83;16.55;;;13.80;99.90;;;;;;4732438;30;20052;-79
2022/03/31 07:24:38;;;;;;;44.13;13.70;;;13.80;99.90;;;;;;4733442;30;20445;-80
2022/03/31 07:27:06;;;;;;;44.42;14.70;;;13.80;99.90;;;;;;4717669;30;20103;-81
2022/03/31 07:29:35;;;;;;;56.70;16.75;;;13.90;99.90;;;;;;4732393;30;20056;-80
2022/03/31 07:32:05;;;;;;;59.58;17.50;;;13.90;99.90;;;;;;4732279;30;20052;-81
2022/03/31 07:34:33;;;;;;;41.60;15.55;;;13.90;99.90;;;;;;4717923;30;20075;-80
2022/03/31 07:37:00;;;;;;;41.92;18.42;;;14.00;99.90;;;;;;4732476;30;20139;-80
2022/03/31 07:39:28;;;;;;;53.67;21.10;;;14.00;99.90;;;;;;4717918;30;20056;-80
2022/03/31 07:41:55;;;;;;;57.28;19.00;;;14.00;99.90;;;;;;4732302;30;20420;-79
2022/03/31 07:44:23;;;;;;;45.50;14.48;;;14.10;99.90;;;;;;4732303;30;20106;-78
2022/03/31 07:46:51;;;;;;;43.92;15.48;;;14.10;99.90;;;;;;4732451;30;20049;-78
2022/03/31 07:49:19;;;;;;;42.70;14.43;;;14.10;99.90;;;;;;4718071;30;20451;-79
2022/03/31 07:51:47;;;;;;;49.15;18.20;;;14.10;99.90;;;;;;4732491;30;20175;-80
2022/03/31 07:54:14;;;;;;;52.33;15.95;;;14.20;99.90;;;;;;4732244;30;20065;-80
2022/03/31 07:56:42;;;;;;;53.50;16.08;;;14.20;99.90;;;;;;4717626;30;20122;-80
2022/03/31 07:59:09;;;;;;;45.88;13.77;;;14.20;99.90;;;;;;4731960;30;20536;-79
2022/03/31 08:01:37;;;;;;;45.40;14.27;;;14.20;99.90;;;;;;4717236;30;20140;-80
2022/03/31 08:04:06;;;;;;;40.10;12.35;;;14.20;99.90;;;;;;4731477;30;20052;-79
2022/03/31 08:06:34;;;;;;;48.53;15.02;;;14.10;99.90;;;;;;4717124;30;20147;-79
2022/03/31 08:09:02;;;;;;;36.85;12.32;;;14.20;99.90;;;;;;4717132;30;20060;-79
2022/03/31 08:11:30;;;;;;;48.53;16.80;;;14.20;99.90;;;;;;4702701;30;20056;-81
2022/03/31 08:13:58;;;;;;;47.70;14.50;;;14.20;99.90;;;;;;4716874;30;20084;-79
2022/03/31 08:16:26;;;;;;;47.00;15.05;;;14.20;99.90;;;;;;4715898;30;20151;-79
2022/03/31 08:18:54;;;;;;;38.80;10.18;;;14.20;99.90;;;;;;4728208;30;20084;-78
2022/03/31 08:21:22;;;;;;;59.20;17.08;;;14.30;99.90;;;;;;4713968;30;20579;-79
2022/03/31 08:23:49;;;;;;;34.42;14.13;;;14.30;99.90;;;;;;4699493;30;20071;-78
2022/03/31 08:26:19;;;;;;;45.45;13.25;;;14.30;99.90;;;;;;4714038;30;20052;-80
2022/03/31 08:28:47;;;;;;;42.78;13.00;;;14.30;99.90;;;;;;4700641;30;20060;-78
2022/03/31 08:31:17;;;;;;;33.40;13.05;;;14.40;99.90;;;;;;4705554;30;20517;-80
2022/03/31 08:33:48;;;;;;;43.00;15.25;;;14.40;99.90;;;;;;4694275;30;20059;-80
2022/03/31 08:36:16;;;;;;;40.83;13.32;;;14.50;99.90;;;;;;4736134;30;20068;-79
2022/03/31 08:38:43;;;;;;;49.95;15.07;;;14.50;99.90;;;;;;4720447;30;20091;-79
2022/03/31 08:41:12;;;;;;;35.20;11.77;;;14.50;99.90;;;;;;4722462;30;20110;-79
2022/03/31 08:43:42;;;;;;;48.72;15.52;;;14.60;99.90;;;;;;4723156;30;20052;-79
2022/03/31 08:46:10;;;;;;;42.80;12.40;;;14.60;99.90;;;;;;4737104;30;20056;-79
2022/03/31 08:48:38;;;;;;;35.58;13.57;;;14.60;99.90;;;;;;4722845;30;20067;-79
2022/03/31 08:51:07;;;;;;;31.25;12.57;;;14.70;99.90;;;;;;4722792;30;20091;-79
2022/03/31 08:53:35;;;;;;;48.50;11.93;;;14.70;99.90;;;;;;4722437;30;20053;-79
2022/03/31 08:56:04;;;;;;;37.60;11.60;;;14.70;99.90;;;;;;4722265;30;20520;-79
2022/03/31 08:58:32;;;;;;;31.38;11.68;;;14.80;99.90;;;;;;4722589;30;20061;-79
2022/03/31 09:00:59;;;;;;;45.50;13.43;;;14.80;99.90;;;;;;4737237;30;20127;-80
2022/03/31 09:03:34;;;;;;;34.00;11.57;;;14.80;99.90;;;;;;4722450;30;20052;-80
2022/03/31 09:06:04;;;;;;;36.88;13.50;;;14.90;99.90;;;;;;4722566;30;20071;-81
2022/03/31 09:08:32;;;;;;;51.42;17.35;;;14.90;99.90;;;;;;4722363;30;20056;-79
2022/03/31 09:11:00;;;;;;;49.65;13.77;;;15.00;99.90;;;;;;4722621;30;20056;-80
2022/03/31 09:13:40;;;;;;;40.33;13.38;;;15.00;99.90;;;;;;4736980;30;20068;-80
2022/03/31 09:16:13;;;;;;;51.38;14.80;;;15.00;99.90;;;;;;4704403;30;20072;-80
2022/03/31 09:18:41;;;;;;;43.45;14.43;;;15.00;99.90;;;;;;4719274;30;20056;-80
2022/03/31 09:21:12;;;;;;;49.35;16.25;;;15.00;99.90;;;;;;4719347;30;20132;-80
2022/03/31 09:23:43;;;;;;;36.30;13.48;;;15.10;99.90;;;;;;4704913;30;20084;-80
2022/03/31 09:26:15;;;;;;;45.90;14.07;;;15.10;99.90;;;;;;4719574;30;20064;-79
2022/03/31 09:28:44;;;;;;;32.13;12.32;;;15.10;99.90;;;;;;4691000;30;20155;-79
2022/03/31 09:31:21;;;;;;;39.85;13.00;;;15.10;99.90;;;;;;4719568;30;20111;-80
2022/03/31 09:33:55;;;;;;;44.90;14.88;;;15.10;99.90;;;;;;4719252;30;20049;-79
2022/03/31 09:36:24;;;;;;;39.80;11.50;;;15.10;99.90;;;;;;4719420;30;20049;-77
2022/03/31 09:38:58;;;;;;;49.17;14.82;;;15.10;99.90;;;;;;4719442;30;20464;-79
2022/03/31 09:41:28;;;;;;;35.88;11.60;;;15.10;99.90;;;;;;4689161;30;20064;-79
2022/03/31 09:43:58;;;;;;;42.53;15.30;;;15.10;99.90;;;;;;4702533;30;20088;-80
2022/03/31 09:46:39;;;;;;;41.75;13.95;;;15.00;99.90;;;;;;4716509;30;20057;-80
2022/03/31 09:49:14;;;;;;;38.05;12.50;;;15.10;99.90;;;;;;4688331;30;20057;-79
2022/03/31 09:51:44;;;;;;;37.83;15.00;;;15.00;99.90;;;;;;4702182;30;20072;-79
2022/03/31 09:54:12;;;;;;;42.58;13.38;;;15.00;99.90;;;;;;4702162;30;20077;-80
2022/03/31 09:56:40;;;;;;;37.17;15.27;;;15.00;99.90;;;;;;4701879;30;20495;-80
2022/03/31 09:59:13;;;;;;;45.33;12.93;;;14.90;99.90;;;;;;4701634;30;20065;-79
2022/03/31 10:01:46;;;;;;;57.00;17.63;;;14.80;99.90;;;;;;4716533;30;20049;-80
2022/03/31 10:04:14;;;;;;;47.25;13.48;;;14.60;99.90;;;;;;4687377;30;20517;-78
2022/03/31 10:06:42;;;;;;;37.92;15.05;;;14.50;99.90;;;;;;4687428;30;20060;-80
2022/03/31 10:09:12;;;;;;;65.57;16.50;;;14.40;99.90;;;;;;4689956;30;20045;-79
2022/03/31 10:11:48;;;;;;;56.95;18.67;;;14.30;99.90;;;;;;4733525;30;20861;-80
2022/03/31 10:14:26;;;;;;;63.47;19.27;;;14.30;99.90;;;;;;4733189;30;20056;-80
2022/03/31 10:17:01;;;;;;;;;;;14.20;99.90;;;;;;4718911;30;20452;-79
2022/03/31 10:19:38;;;;;;;45.97;15.82;;;14.20;99.90;;;;;;4718926;30;19976;-81
2022/03/31 10:25:10;;;;;;;34.40;14.45;;;14.10;99.90;;;;;;4718432;30;20060;-79
2022/03/31 10:27:48;;;;;;;59.53;17.75;;;14.10;99.90;;;;;;4704902;30;20087;-81
2022/03/31 10:30:20;;;;;;;44.17;15.80;;;14.20;99.90;;;;;;4718734;30;20068;-79
2022/03/31 10:33:08;;;;;;;49.97;14.57;;;14.20;99.90;;;;;;4734820;30;20057;-79
2022/03/31 10:35:39;;;;;;;46.58;16.25;;;14.20;99.90;;;;;;4733671;30;20504;-80
2022/03/31 10:38:13;;;;;;;43.17;15.88;;;14.30;99.90;;;;;;4718166;30;20049;-80
2022/03/31 10:40:44;;;;;;;42.88;13.80;;;14.40;99.90;;;;;;4719222;30;20456;-79
2022/03/31 10:43:28;;;;;;;56.53;16.90;;;14.50;99.90;;;;;;4718649;30;20535;-80
2022/03/31 10:45:58;;;;;;;54.70;17.98;;;14.70;99.90;;;;;;4733252;30;20052;-85
2022/03/31 10:48:29;;;;;;;58.83;17.92;;;14.80;99.90;;;;;;4718925;30;20556;-80
2022/03/31 10:51:12;;;;;;;42.50;14.70;;;14.90;99.90;;;;;;4718461;30;20053;-80
2022/03/31 10:53:44;;;;;;;52.17;17.77;;;14.90;99.90;;;;;;4718176;30;20061;-80
2022/03/31 10:56:26;;;;;;;40.67;14.05;;;14.90;99.90;;;;;;4703454;30;20059;-79
2022/03/31 10:58:59;;;;;;;40.85;14.30;;;14.80;99.90;;;;;;4734062;30;20056;-80
2022/03/31 11:01:33;;;;;;;51.05;18.77;;;14.90;99.90;;;;;;4724825;30;20137;-81
2022/03/31 11:04:10;;;;;;;49.75;17.05;;;15.00;99.90;;;;;;4715030;30;20060;-79
2022/03/31 11:06:49;;;;;;;70.18;20.77;;;15.10;99.90;;;;;;4700729;30;20163;-79
2022/03/31 11:09:32;;;;;;;61.92;17.77;;;15.10;99.90;;;;;;4715454;30;20045;-80
2022/03/31 11:12:00;;;;;;;49.55;15.63;;;15.20;99.90;;;;;;4700467;30;20554;-80
2022/03/31 11:14:28;;;;;;;53.97;17.58;;;15.20;99.90;;;;;;4700393;30;20088;-79
2022/03/31 11:16:55;;;;;;;46.75;16.40;;;15.20;99.90;;;;;;4715008;30;20083;-79
2022/03/31 11:19:33;;;;;;;58.88;20.70;;;15.20;99.90;;;;;;4701258;30;20065;-79
2022/03/31 11:22:01;;;;;;;60.83;15.88;;;15.20;99.90;;;;;;4715085;30;20053;-78
2022/03/31 11:24:29;;;;;;;66.22;18.27;;;15.30;99.90;;;;;;4700767;30;20049;-78
2022/03/31 11:26:56;;;;;;;56.65;19.90;;;15.20;99.90;;;;;;4729610;30;20142;-78
2022/03/31 11:29:26;;;;;;;56.00;18.48;;;15.20;99.90;;;;;;4715160;30;20118;-80
2022/03/31 11:31:56;;;;;;;58.17;18.65;;;15.00;99.90;;;;;;4700388;30;20051;-79
2022/03/31 11:34:26;;;;;;;50.90;16.17;;;14.90;99.90;;;;;;4716151;30;20061;-80
2022/03/31 11:36:55;;;;;;;55.90;16.90;;;14.80;99.90;;;;;;4700193;30;20063;-78
2022/03/31 11:39:31;;;;;;;43.03;17.00;;;14.70;99.90;;;;;;4686153;30;20119;-79
2022/03/31 11:42:00;;;;;;;50.63;17.38;;;14.70;99.90;;;;;;4715006;30;20057;-80
2022/03/31 11:44:32;;;;;;;44.47;14.90;;;14.70;99.90;;;;;;4716096;30;20057;-78
2022/03/31 11:47:00;;;;;;;40.60;15.10;;;14.70;99.90;;;;;;4714882;30;20049;-78
2022/03/31 11:49:28;;;;;;;51.00;17.60;;;14.70;99.90;;;;;;4714495;30;20075;-78
2022/03/31 11:51:56;;;;;;;74.55;18.85;;;14.70;99.90;;;;;;4699678;30;20566;-80
2022/03/31 11:54:27;;;;;;;68.15;18.65;;;14.70;99.90;;;;;;4716503;30;20818;-79
2022/03/31 11:57:07;;;;;;;63.50;16.25;;;14.70;99.90;;;;;;4717518;30;20512;-79
2022/03/31 11:59:36;;;;;;;62.53;18.92;;;14.70;99.90;;;;;;4702960;30;20493;-79
2022/03/31 12:02:18;;;;;;;50.80;18.90;;;14.70;99.90;;;;;;4702974;30;20072;-77
2022/03/31 12:04:47;;;;;;;46.17;17.13;;;14.60;99.90;;;;;;4702038;30;20092;-78
2022/03/31 12:07:18;;;;;;;53.00;16.20;;;14.50;99.90;;;;;;4731964;30;20048;-78
2022/03/31 12:09:47;;;;;;;56.60;16.92;;;14.50;99.90;;;;;;4731940;30;20425;-78
2022/03/31 12:12:16;;;;;;;55.53;19.60;;;14.50;99.90;;;;;;4731755;30;20053;-79
2022/03/31 12:14:58;;;;;;;56.20;18.27;;;14.50;99.90;;;;;;4717209;30;20064;-78
2022/03/31 12:17:26;;;;;;;53.67;21.27;;;14.40;99.90;;;;;;4695927;30;20061;-74
2022/03/31 12:19:53;;;;;;;74.70;20.85;;;14.40;99.90;;;;;;4714425;30;20049;-78
2022/03/31 12:22:32;;;;;;;61.83;19.10;;;14.40;99.90;;;;;;4710398;30;20489;-78
2022/03/31 12:25:00;;;;;;;44.60;16.27;;;14.40;99.90;;;;;;4726276;30;20049;-79
2022/03/31 12:27:28;;;;;;;51.60;16.35;;;14.30;99.90;;;;;;4694214;30;20057;-79
2022/03/31 12:30:02;;;;;;;72.45;20.08;;;14.30;99.90;;;;;;4717162;30;20063;-78
2022/03/31 12:32:33;;;;;;;58.45;17.15;;;14.30;99.90;;;;;;4726383;30;20505;-79
2022/03/31 12:35:01;;;;;;;53.90;15.38;;;14.30;99.90;;;;;;4717117;30;20390;-78
2022/03/31 12:37:35;;;;;;;56.95;17.00;;;14.40;99.90;;;;;;4714950;30;20091;-79
2022/03/31 12:40:12;;;;;;;49.22;17.92;;;14.30;99.90;;;;;;4685069;30;20592;-79
2022/03/31 12:42:57;;;;;;;35.85;13.70;;;14.30;99.90;;;;;;4716912;30;20152;-78
2022/03/31 12:45:30;;;;;;;43.80;14.43;;;14.30;99.90;;;;;;4702895;30;20063;-79